sensor_id;sensor_type;location;lat;lon;timestamp;pressure;altitude;pressure_sealevel;temperature;humidity
60337;BME280;46978;50.288;28.624;2023-09-19T00:00:40;99308.83;;;11.64;83.36
60337;BME280;46978;50.288;28.624;2023-09-19T00:01:42;99307.08;;;11.64;83.19
60337;BME280;46978;50.288;28.624;2023-09-19T00:02:45;99302.72;;;11.66;83.03
60337;BME280;46978;50.288;28.624;2023-09-19T00:03:47;99303.56;;;11.67;82.81
60337;BME280;46978;50.288;28.624;2023-09-19T00:04:48;99303.56;;;11.67;82.81
60337;BME280;46978;50.288;28.624;2023-09-19T00:05:50;99306.13;;;11.69;82.54
60337;BME280;46978;50.288;28.624;2023-09-19T00:06:52;99302.64;;;11.70;82.47
60337;BME280;46978;50.288;28.624;2023-09-19T00:07:55;99304.33;;;11.71;82.34
60337;BME280;46978;50.288;28.624;2023-09-19T00:08:58;99313.04;;;11.70;82.10
60337;BME280;46978;50.288;28.624;2023-09-19T00:09:59;99299.17;;;11.69;82.13
60337;BME280;46978;50.288;28.624;2023-09-19T00:11:01;99300.05;;;11.70;82.20
60337;BME280;46978;50.288;28.624;2023-09-19T00:12:05;99296.53;;;11.71;82.00
60337;BME280;46978;50.288;28.624;2023-09-19T00:13:08;99298.25;;;11.72;81.90
60337;BME280;46978;50.288;28.624;2023-09-19T00:14:10;99294.77;;;11.73;81.80
60337;BME280;46978;50.288;28.624;2023-09-19T00:15:12;99283.46;;;11.74;81.66
60337;BME280;46978;50.288;28.624;2023-09-19T00:16:14;99300.78;;;11.75;81.54
60337;BME280;46978;50.288;28.624;2023-09-19T00:17:15;99299.90;;;11.76;81.69
60337;BME280;46978;50.288;28.624;2023-09-19T00:18:20;99294.73;;;11.74;81.48
60337;BME280;46978;50.288;28.624;2023-09-19T00:19:22;99286.94;;;11.74;81.25
60337;BME280;46978;50.288;28.624;2023-09-19T00:20:24;99288.66;;;11.74;81.37
60337;BME280;46978;50.288;28.624;2023-09-19T00:21:26;99292.14;;;11.74;81.20
60337;BME280;46978;50.288;28.624;2023-09-19T00:22:27;99288.66;;;11.74;81.20
60337;BME280;46978;50.288;28.624;2023-09-19T00:23:29;99284.37;;;11.73;81.22
60337;BME280;46978;50.288;28.624;2023-09-19T00:24:30;99299.06;;;11.74;81.21
60337;BME280;46978;50.288;28.624;2023-09-19T00:25:32;99281.73;;;11.74;81.05
60337;BME280;46978;50.288;28.624;2023-09-19T00:26:33;99291.27;;;11.74;81.02
60337;BME280;46978;50.288;28.624;2023-09-19T00:27:35;99287.81;;;11.73;81.01
60337;BME280;46978;50.288;28.624;2023-09-19T00:28:37;99290.41;;;11.73;80.66
60337;BME280;46978;50.288;28.624;2023-09-19T00:29:39;99285.22;;;11.73;80.75
60337;BME280;46978;50.288;28.624;2023-09-19T00:30:42;99285.22;;;11.73;80.90
60337;BME280;46978;50.288;28.624;2023-09-19T00:31:44;99284.37;;;11.73;80.80
60337;BME280;46978;50.288;28.624;2023-09-19T00:32:47;99285.22;;;11.73;80.55
60337;BME280;46978;50.288;28.624;2023-09-19T00:33:49;99281.78;;;11.73;80.67
60337;BME280;46978;50.288;28.624;2023-09-19T00:34:51;99284.30;;;11.76;80.68
60337;BME280;46978;50.288;28.624;2023-09-19T00:35:53;99284.30;;;11.76;80.68
60337;BME280;46978;50.288;28.624;2023-09-19T00:36:55;99285.98;;;11.77;80.42
60337;BME280;46978;50.288;28.624;2023-09-19T00:37:57;99288.55;;;11.78;80.42
60337;BME280;46978;50.288;28.624;2023-09-19T00:38:58;99292.02;;;11.79;80.26
60337;BME280;46978;50.288;28.624;2023-09-19T00:40:00;99287.63;;;11.81;80.20
60337;BME280;46978;50.288;28.624;2023-09-19T00:41:02;99284.16;;;11.82;80.10
60337;BME280;46978;50.288;28.624;2023-09-19T00:42:04;99278.91;;;11.83;79.98
60337;BME280;46978;50.288;28.624;2023-09-19T00:43:05;99288.40;;;11.84;79.89
60337;BME280;46978;50.288;28.624;2023-09-19T00:44:07;99283.20;;;11.84;79.81
60337;BME280;46978;50.288;28.624;2023-09-19T00:45:10;99295.31;;;11.86;79.71
60337;BME280;46978;50.288;28.624;2023-09-19T00:46:16;99288.36;;;11.86;79.59
60337;BME280;46978;50.288;28.624;2023-09-19T00:47:17;99289.17;;;11.88;79.38
60337;BME280;46978;50.288;28.624;2023-09-19T00:48:20;99282.24;;;11.89;79.38
60337;BME280;46978;50.288;28.624;2023-09-19T00:49:23;99285.65;;;11.91;79.20
60337;BME280;46978;50.288;28.624;2023-09-19T00:50:26;99284.77;;;11.93;79.05
60337;BME280;46978;50.288;28.624;2023-09-19T00:51:28;99284.72;;;11.95;78.82
60337;BME280;46978;50.288;28.624;2023-09-19T00:52:30;99283.84;;;11.94;78.92
60337;BME280;46978;50.288;28.624;2023-09-19T00:53:32;99288.17;;;11.95;78.78
60337;BME280;46978;50.288;28.624;2023-09-19T00:54:34;99285.56;;;11.95;78.83
60337;BME280;46978;50.288;28.624;2023-09-19T00:55:36;99283.84;;;11.94;78.78
60337;BME280;46978;50.288;28.624;2023-09-19T00:56:39;99286.45;;;11.94;78.77
60337;BME280;46978;50.288;28.624;2023-09-19T00:57:40;99280.41;;;11.94;78.86
60337;BME280;46978;50.288;28.624;2023-09-19T00:58:42;99278.69;;;11.93;78.87
60337;BME280;46978;50.288;28.624;2023-09-19T00:59:44;99279.56;;;11.92;78.71
60337;BME280;46978;50.288;28.624;2023-09-19T01:00:48;99278.69;;;11.91;78.85
60337;BME280;46978;50.288;28.624;2023-09-19T01:01:50;99275.28;;;11.89;78.89
60337;BME280;46978;50.288;28.624;2023-09-19T01:02:51;99278.77;;;11.88;78.95
60337;BME280;46978;50.288;28.624;2023-09-19T01:03:53;99275.36;;;11.86;79.12
60337;BME280;46978;50.288;28.624;2023-09-19T01:04:55;99273.67;;;11.85;78.98
60337;BME280;46978;50.288;28.624;2023-09-19T01:05:59;99277.16;;;11.84;79.06
60337;BME280;46978;50.288;28.624;2023-09-19T01:07:01;99264.20;;;11.82;79.27
60337;BME280;46978;50.288;28.624;2023-09-19T01:08:03;99268.55;;;11.82;79.41
60337;BME280;46978;50.288;28.624;2023-09-19T01:09:05;99256.44;;;11.81;79.54
60337;BME280;46978;50.288;28.624;2023-09-19T01:10:13;99270.28;;;11.81;79.75
60337;BME280;46978;50.288;28.624;2023-09-19T01:11:21;99266.76;;;11.84;79.62
60337;BME280;46978;50.288;28.624;2023-09-19T01:14:50;99271.92;;;11.86;79.65
60337;BME280;46978;50.288;28.624;2023-09-19T01:17:17;99266.69;;;11.87;79.61
60337;BME280;46978;50.288;28.624;2023-09-19T01:21:28;99267.60;;;11.84;79.83
60337;BME280;46978;50.288;28.624;2023-09-19T01:24:15;99259.03;;;11.81;79.89
60337;BME280;46978;50.288;28.624;2023-09-19T01:27:14;99261.71;;;11.78;80.40
60337;BME280;46978;50.288;28.624;2023-09-19T01:29:46;99247.83;;;11.79;80.63
60337;BME280;46978;50.288;28.624;2023-09-19T01:30:52;99247.75;;;11.82;80.75
60337;BME280;46978;50.288;28.624;2023-09-19T01:31:53;99247.72;;;11.83;80.78
60337;BME280;46978;50.288;28.624;2023-09-19T01:32:55;99241.60;;;11.84;80.96
60337;BME280;46978;50.288;28.624;2023-09-19T01:34:03;99238.08;;;11.87;80.83
60337;BME280;46978;50.288;28.624;2023-09-19T01:35:02;99245.88;;;11.87;80.74
60337;BME280;46978;50.288;28.624;2023-09-19T01:36:04;99243.24;;;11.89;80.92
60337;BME280;46978;50.288;28.624;2023-09-19T01:37:06;99242.33;;;11.90;80.94
60337;BME280;46978;50.288;28.624;2023-09-19T01:38:07;99239.73;;;11.90;80.76
60337;BME280;46978;50.288;28.624;2023-09-19T01:39:11;99237.09;;;11.91;80.79
60337;BME280;46978;50.288;28.624;2023-09-19T01:40:17;99242.28;;;11.93;80.78
60337;BME280;46978;50.288;28.624;2023-09-19T01:41:29;99242.28;;;11.93;80.95
60337;BME280;46978;50.288;28.624;2023-09-19T01:43:57;99236.16;;;11.95;81.10
60337;BME280;46978;50.288;28.624;2023-09-19T01:46:40;99236.08;;;11.98;80.99
60337;BME280;46978;50.288;28.624;2023-09-19T01:47:51;99230.80;;;12.01;80.91
60337;BME280;46978;50.288;28.624;2023-09-19T01:51:10;99229.05;;;12.02;81.09
60337;BME280;46978;50.288;28.624;2023-09-19T01:52:13;99230.80;;;12.01;81.25
60337;BME280;46978;50.288;28.624;2023-09-19T01:53:23;99227.31;;;12.03;81.31
60337;BME280;46978;50.288;28.624;2023-09-19T01:54:44;99227.31;;;12.03;81.28
60337;BME280;46978;50.288;28.624;2023-09-19T01:55:43;99234.20;;;12.04;81.35
60337;BME280;46978;50.288;28.624;2023-09-19T01:58:14;99222.92;;;12.05;81.24
60337;BME280;46978;50.288;28.624;2023-09-19T01:59:24;99224.64;;;12.06;81.44
60337;BME280;46978;50.288;28.624;2023-09-19T02:00:26;99224.64;;;12.06;81.35
60337;BME280;46978;50.288;28.624;2023-09-19T02:01:29;99218.60;;;12.04;81.27
60337;BME280;46978;50.288;28.624;2023-09-19T02:02:36;99215.23;;;12.00;81.19
60337;BME280;46978;50.288;28.624;2023-09-19T02:03:39;99215.23;;;12.00;81.19
60337;BME280;46978;50.288;28.624;2023-09-19T02:04:42;99220.44;;;12.00;81.37
60337;BME280;46978;50.288;28.624;2023-09-19T02:05:51;99212.68;;;11.98;81.71
60337;BME280;46978;50.288;28.624;2023-09-19T02:06:53;99220.44;;;12.00;81.76
60337;BME280;46978;50.288;28.624;2023-09-19T02:07:55;99216.16;;;11.97;81.97
60337;BME280;46978;50.288;28.624;2023-09-19T02:08:57;99216.16;;;11.97;81.97
60337;BME280;46978;50.288;28.624;2023-09-19T02:10:00;99218.72;;;11.99;81.75
60337;BME280;46978;50.288;28.624;2023-09-19T02:11:01;99216.16;;;11.97;81.98
60337;BME280;46978;50.288;28.624;2023-09-19T02:12:04;99214.44;;;11.98;82.09
60337;BME280;46978;50.288;28.624;2023-09-19T02:13:05;99209.28;;;11.96;82.16
60337;BME280;46978;50.288;28.624;2023-09-19T02:14:07;99210.96;;;11.97;82.21
60337;BME280;46978;50.288;28.624;2023-09-19T02:15:10;99210.12;;;11.97;82.34
60337;BME280;46978;50.288;28.624;2023-09-19T02:16:12;99208.41;;;11.96;82.40
60337;BME280;46978;50.288;28.624;2023-09-19T02:17:14;99205.00;;;11.94;82.31
60337;BME280;46978;50.288;28.624;2023-09-19T02:18:16;99199.84;;;11.92;82.55
60337;BME280;46978;50.288;28.624;2023-09-19T02:19:17;99209.36;;;11.93;82.73
60337;BME280;46978;50.288;28.624;2023-09-19T02:20:19;99208.48;;;11.93;82.67
60337;BME280;46978;50.288;28.624;2023-09-19T02:21:20;99205.05;;;11.91;82.44
60337;BME280;46978;50.288;28.624;2023-09-19T02:22:22;99211.13;;;11.90;82.61
60337;BME280;46978;50.288;28.624;2023-09-19T02:23:24;99206.84;;;11.89;83.01
60337;BME280;46978;50.288;28.624;2023-09-19T02:24:26;99210.28;;;11.89;83.11
60337;BME280;46978;50.288;28.624;2023-09-19T02:25:28;99204.28;;;11.87;83.11
60337;BME280;46978;50.288;28.624;2023-09-19T02:26:29;99206.01;;;11.87;83.23
60337;BME280;46978;50.288;28.624;2023-09-19T02:27:31;99212.12;;;11.86;83.27
60337;BME280;46978;50.288;28.624;2023-09-19T02:28:33;99202.61;;;11.84;83.57
60337;BME280;46978;50.288;28.624;2023-09-19T02:29:34;99199.13;;;11.86;83.71
60337;BME280;46978;50.288;28.624;2023-09-19T02:30:36;99206.01;;;11.87;83.51
60337;BME280;46978;50.288;28.624;2023-09-19T02:31:38;99199.13;;;11.86;83.71
60337;BME280;46978;50.288;28.624;2023-09-19T02:32:40;99200.87;;;11.85;83.70
60337;BME280;46978;50.288;28.624;2023-09-19T02:33:41;99196.56;;;11.84;83.71
60337;BME280;46978;50.288;28.624;2023-09-19T02:34:43;99199.97;;;11.86;84.01
60337;BME280;46978;50.288;28.624;2023-09-19T02:35:45;99203.41;;;11.87;83.93
60337;BME280;46978;50.288;28.624;2023-09-19T02:36:48;99193.08;;;11.85;84.32
60337;BME280;46978;50.288;28.624;2023-09-19T02:37:50;99193.08;;;11.85;84.32
60337;BME280;46978;50.288;28.624;2023-09-19T02:38:52;99198.20;;;11.87;84.32
60337;BME280;46978;50.288;28.624;2023-09-19T02:39:53;99193.96;;;11.84;84.38
60337;BME280;46978;50.288;28.624;2023-09-19T02:40:55;99195.68;;;11.85;84.13
60337;BME280;46978;50.288;28.624;2023-09-19T02:41:57;99196.56;;;11.84;84.32
60337;BME280;46978;50.288;28.624;2023-09-19T02:42:59;99190.56;;;11.82;84.46
60337;BME280;46978;50.288;28.624;2023-09-19T02:44:00;99193.20;;;11.80;84.64
60337;BME280;46978;50.288;28.624;2023-09-19T02:45:02;99193.20;;;11.80;84.84
60337;BME280;46978;50.288;28.624;2023-09-19T02:46:04;99193.20;;;11.80;85.08
60337;BME280;46978;50.288;28.624;2023-09-19T02:47:06;99199.24;;;11.81;85.30
60337;BME280;46978;50.288;28.624;2023-09-19T02:48:08;99199.24;;;11.81;85.18
60337;BME280;46978;50.288;28.624;2023-09-19T02:49:09;99192.33;;;11.80;84.99
60337;BME280;46978;50.288;28.624;2023-09-19T02:50:12;99201.03;;;11.79;85.63
60337;BME280;46978;50.288;28.624;2023-09-19T02:51:14;99201.03;;;11.79;85.63
60337;BME280;46978;50.288;28.624;2023-09-19T02:52:16;99204.52;;;11.78;85.48
60337;BME280;46978;50.288;28.624;2023-09-19T02:53:18;99191.56;;;11.76;85.52
60337;BME280;46978;50.288;28.624;2023-09-19T02:54:19;99197.60;;;11.77;85.70
60337;BME280;46978;50.288;28.624;2023-09-19T02:55:21;99194.16;;;11.76;85.82
60337;BME280;46978;50.288;28.624;2023-09-19T02:56:23;99189.88;;;11.74;85.74
60337;BME280;46978;50.288;28.624;2023-09-19T02:57:25;99190.76;;;11.74;86.01
60337;BME280;46978;50.288;28.624;2023-09-19T02:58:27;99193.39;;;11.73;86.01
60337;BME280;46978;50.288;28.624;2023-09-19T02:59:28;99196.03;;;11.71;86.11
60337;BME280;46978;50.288;28.624;2023-09-19T03:00:30;99193.39;;;11.73;86.75
60337;BME280;46978;50.288;28.624;2023-09-19T03:01:32;99196.00;;;11.73;86.39
60337;BME280;46978;50.288;28.624;2023-09-19T03:02:34;99190.80;;;11.73;86.64
60337;BME280;46978;50.288;28.624;2023-09-19T03:03:36;99188.20;;;11.73;86.40
60337;BME280;46978;50.288;28.624;2023-09-19T03:04:37;99187.36;;;11.71;86.59
60337;BME280;46978;50.288;28.624;2023-09-19T03:05:39;99189.12;;;11.70;86.86
60337;BME280;46978;50.288;28.624;2023-09-19T03:06:41;99187.44;;;11.68;86.78
60337;BME280;46978;50.288;28.624;2023-09-19T03:07:43;99187.44;;;11.68;86.97
60337;BME280;46978;50.288;28.624;2023-09-19T03:08:45;99180.59;;;11.65;87.06
60337;BME280;46978;50.288;28.624;2023-09-19T03:09:47;99187.52;;;11.64;87.17
60337;BME280;46978;50.288;28.624;2023-09-19T03:10:49;99188.43;;;11.63;87.11
60337;BME280;46978;50.288;28.624;2023-09-19T03:11:50;99188.47;;;11.62;87.27
60337;BME280;46978;50.288;28.624;2023-09-19T03:12:52;99186.75;;;11.61;87.45
60337;BME280;46978;50.288;28.624;2023-09-19T03:13:54;99179.00;;;11.59;87.71
60337;BME280;46978;50.288;28.624;2023-09-19T03:14:56;99175.59;;;11.57;87.65
60337;BME280;46978;50.288;28.624;2023-09-19T03:15:58;99173.88;;;11.56;87.65
60337;BME280;46978;50.288;28.624;2023-09-19T03:16:59;99180.79;;;11.57;88.25
60337;BME280;46978;50.288;28.624;2023-09-19T03:18:01;99174.72;;;11.57;88.08
60337;BME280;46978;50.288;28.624;2023-09-19T03:19:03;99186.83;;;11.58;88.00
60337;BME280;46978;50.288;28.624;2023-09-19T03:20:05;99182.52;;;11.57;88.23
60337;BME280;46978;50.288;28.624;2023-09-19T03:21:07;99174.72;;;11.57;88.54
60337;BME280;46978;50.288;28.624;2023-09-19T03:22:09;99178.19;;;11.57;88.61
60337;BME280;46978;50.288;28.624;2023-09-19T03:23:11;99173.88;;;11.56;88.72
60337;BME280;46978;50.288;28.624;2023-09-19T03:24:13;99172.99;;;11.57;88.75
60337;BME280;46978;50.288;28.624;2023-09-19T03:25:15;99178.23;;;11.56;88.84
60337;BME280;46978;50.288;28.624;2023-09-19T03:26:17;99179.07;;;11.56;88.85
60337;BME280;46978;50.288;28.624;2023-09-19T03:27:19;99177.39;;;11.54;88.93
60337;BME280;46978;50.288;28.624;2023-09-19T03:28:21;99170.55;;;11.51;89.00
60337;BME280;46978;50.288;28.624;2023-09-19T03:29:23;99174.88;;;11.51;89.17
60337;BME280;46978;50.288;28.624;2023-09-19T03:30:24;99175.75;;;11.51;89.35
60337;BME280;46978;50.288;28.624;2023-09-19T03:31:26;99173.19;;;11.50;89.64
60337;BME280;46978;50.288;28.624;2023-09-19T03:32:28;99163.63;;;11.50;89.35
60337;BME280;46978;50.288;28.624;2023-09-19T03:33:30;99171.42;;;11.50;89.69
60337;BME280;46978;50.288;28.624;2023-09-19T03:34:32;99167.08;;;11.51;89.80
60337;BME280;46978;50.288;28.624;2023-09-19T03:35:34;99171.47;;;11.48;89.96
60337;BME280;46978;50.288;28.624;2023-09-19T03:36:35;99169.67;;;11.51;90.36
60337;BME280;46978;50.288;28.624;2023-09-19T03:37:37;99167.04;;;11.52;90.39
60337;BME280;46978;50.288;28.624;2023-09-19T03:38:39;99169.59;;;11.54;90.17
60337;BME280;46978;50.288;28.624;2023-09-19T03:39:41;99168.75;;;11.53;90.22
60337;BME280;46978;50.288;28.624;2023-09-19T03:40:43;99175.63;;;11.56;90.31
60337;BME280;46978;50.288;28.624;2023-09-19T03:41:46;99174.75;;;11.55;90.31
60337;BME280;46978;50.288;28.624;2023-09-19T03:42:48;99174.75;;;11.55;90.31
60337;BME280;46978;50.288;28.624;2023-09-19T03:43:50;99173.03;;;11.56;90.40
60337;BME280;46978;50.288;28.624;2023-09-19T03:44:52;99165.27;;;11.54;90.50
60337;BME280;46978;50.288;28.624;2023-09-19T03:45:54;99167.84;;;11.56;91.09
60337;BME280;46978;50.288;28.624;2023-09-19T03:46:55;99172.12;;;11.57;90.63
60337;BME280;46978;50.288;28.624;2023-09-19T03:47:57;99168.67;;;11.56;90.62
60337;BME280;46978;50.288;28.624;2023-09-19T03:48:59;99172.99;;;11.57;90.49
60337;BME280;46978;50.288;28.624;2023-09-19T03:50:00;99167.80;;;11.57;90.76
60337;BME280;46978;50.288;28.624;2023-09-19T03:51:02;99167.80;;;11.57;90.79
60337;BME280;46978;50.288;28.624;2023-09-19T03:52:04;99165.16;;;11.59;90.87
60337;BME280;46978;50.288;28.624;2023-09-19T03:53:06;99169.41;;;11.61;90.78
60337;BME280;46978;50.288;28.624;2023-09-19T03:54:07;99165.96;;;11.61;90.69
60337;BME280;46978;50.288;28.624;2023-09-19T03:55:09;99167.72;;;11.60;90.50
60337;BME280;46978;50.288;28.624;2023-09-19T03:56:11;99166.00;;;11.59;90.73
60337;BME280;46978;50.288;28.624;2023-09-19T03:57:12;99165.96;;;11.61;91.02
60337;BME280;46978;50.288;28.624;2023-09-19T03:58:14;99172.00;;;11.61;90.96
60337;BME280;46978;50.288;28.624;2023-09-19T03:59:16;99167.68;;;11.62;90.81
60337;BME280;46978;50.288;28.624;2023-09-19T04:00:17;99164.20;;;11.61;90.86
60337;BME280;46978;50.288;28.624;2023-09-19T04:01:19;99160.72;;;11.62;90.79
60337;BME280;46978;50.288;28.624;2023-09-19T04:02:21;99169.36;;;11.63;90.82
60337;BME280;46978;50.288;28.624;2023-09-19T04:03:23;99164.17;;;11.63;90.69
60337;BME280;46978;50.288;28.624;2023-09-19T04:04:25;99166.77;;;11.63;90.78
60337;BME280;46978;50.288;28.624;2023-09-19T04:05:26;99169.33;;;11.64;90.77
60337;BME280;46978;50.288;28.624;2023-09-19T04:06:28;99171.92;;;11.64;90.88
60337;BME280;46978;50.288;28.624;2023-09-19T04:07:29;99164.13;;;11.64;90.87
60337;BME280;46978;50.288;28.624;2023-09-19T04:08:31;99165.00;;;11.65;90.87
60337;BME280;46978;50.288;28.624;2023-09-19T04:09:32;99168.48;;;11.64;90.75
60337;BME280;46978;50.288;28.624;2023-09-19T04:10:34;99165.84;;;11.65;90.83
60337;BME280;46978;50.288;28.624;2023-09-19T04:11:36;99168.44;;;11.65;90.88
60337;BME280;46978;50.288;28.624;2023-09-19T04:12:37;99168.44;;;11.65;90.81
60337;BME280;46978;50.288;28.624;2023-09-19T04:13:39;99164.96;;;11.66;90.76
60337;BME280;46978;50.288;28.624;2023-09-19T04:14:41;99164.05;;;11.68;90.79
60337;BME280;46978;50.288;28.624;2023-09-19T04:15:42;99169.20;;;11.69;90.83
60337;BME280;46978;50.288;28.624;2023-09-19T04:16:44;99160.53;;;11.70;90.87
60337;BME280;46978;50.288;28.624;2023-09-19T04:17:46;99164.80;;;11.73;90.95
60337;BME280;46978;50.288;28.624;2023-09-19T04:18:47;99163.00;;;11.75;91.41
60337;BME280;46978;50.288;28.624;2023-09-19T04:19:49;99164.64;;;11.79;91.03
60337;BME280;46978;50.288;28.624;2023-09-19T04:20:50;99163.65;;;11.83;91.16
60337;BME280;46978;50.288;28.624;2023-09-19T04:21:52;99154.88;;;11.87;91.11
60337;BME280;46978;50.288;28.624;2023-09-19T04:22:54;99156.48;;;11.91;90.93
60337;BME280;46978;50.288;28.624;2023-09-19T04:23:55;99161.59;;;11.96;90.98
60337;BME280;46978;50.288;28.624;2023-09-19T04:24:57;99162.39;;;11.99;90.67
60337;BME280;46978;50.288;28.624;2023-09-19T04:25:58;99159.66;;;12.04;90.58
60337;BME280;46978;50.288;28.624;2023-09-19T04:27:00;99161.30;;;12.07;90.55
60337;BME280;46978;50.288;28.624;2023-09-19T04:28:02;99163.78;;;12.11;90.50
60337;BME280;46978;50.288;28.624;2023-09-19T04:29:04;99155.89;;;12.14;90.35
60337;BME280;46978;50.288;28.624;2023-09-19T04:30:07;99159.23;;;12.19;90.32
60337;BME280;46978;50.288;28.624;2023-09-19T04:31:09;99158.23;;;12.24;90.19
60337;BME280;46978;50.288;28.624;2023-09-19T04:32:11;99154.66;;;12.28;90.07
60337;BME280;46978;50.288;28.624;2023-09-19T04:33:12;99162.29;;;12.34;89.83
60337;BME280;46978;50.288;28.624;2023-09-19T04:34:14;99156.16;;;12.36;89.79
60337;BME280;46978;50.288;28.624;2023-09-19T04:35:16;99160.31;;;12.42;89.62
60337;BME280;46978;50.288;28.624;2023-09-19T04:36:18;99161.05;;;12.47;89.47
60337;BME280;46978;50.288;28.624;2023-09-19T04:37:19;99154.84;;;12.51;89.25
60337;BME280;46978;50.288;28.624;2023-09-19T04:38:21;99157.30;;;12.56;88.96
60337;BME280;46978;50.288;28.624;2023-09-19T04:39:22;99156.33;;;12.60;88.73
60337;BME280;46978;50.288;28.624;2023-09-19T04:40:24;99154.42;;;12.65;88.54
60337;BME280;46978;50.288;28.624;2023-09-19T04:41:26;99157.77;;;12.70;88.48
60337;BME280;46978;50.288;28.624;2023-09-19T04:42:27;99153.27;;;12.76;88.37
60337;BME280;46978;50.288;28.624;2023-09-19T04:43:29;99162.60;;;12.83;88.09
60337;BME280;46978;50.288;28.624;2023-09-19T04:44:30;99154.60;;;12.89;87.89
60337;BME280;46978;50.288;28.624;2023-09-19T04:45:32;99150.05;;;12.96;87.57
60337;BME280;46978;50.288;28.624;2023-09-19T04:46:34;99155.91;;;13.02;87.36
60337;BME280;46978;50.288;28.624;2023-09-19T04:47:41;99151.38;;;13.09;87.29
60337;BME280;46978;50.288;28.624;2023-09-19T04:48:40;99158.86;;;13.18;86.75
60337;BME280;46978;50.288;28.624;2023-09-19T04:49:42;99149.06;;;13.26;86.34
60337;BME280;46978;50.288;28.624;2023-09-19T04:50:43;99148.84;;;13.34;86.11
60337;BME280;46978;50.288;28.624;2023-09-19T04:51:45;99150.33;;;13.41;85.86
60337;BME280;46978;50.288;28.624;2023-09-19T04:52:49;99150.07;;;13.49;85.32
60337;BME280;46978;50.288;28.624;2023-09-19T04:53:51;99149.02;;;13.55;85.27
60337;BME280;46978;50.288;28.624;2023-09-19T04:54:53;99146.16;;;13.62;84.83
60337;BME280;46978;50.288;28.624;2023-09-19T04:55:54;99156.33;;;13.70;84.50
60337;BME280;46978;50.288;28.624;2023-09-19T04:56:56;99156.11;;;13.76;84.12
60337;BME280;46978;50.288;28.624;2023-09-19T04:57:58;99147.19;;;13.84;83.88
60337;BME280;46978;50.288;28.624;2023-09-19T04:58:59;99155.63;;;13.90;83.46
60337;BME280;46978;50.288;28.624;2023-09-19T05:00:02;99147.59;;;13.96;83.00
60337;BME280;46978;50.288;28.624;2023-09-19T05:01:04;99148.27;;;14.02;82.86
60337;BME280;46978;50.288;28.624;2023-09-19T05:02:05;99145.44;;;14.08;82.46
60337;BME280;46978;50.288;28.624;2023-09-19T05:03:07;99139.22;;;14.12;81.97
60337;BME280;46978;50.288;28.624;2023-09-19T05:04:08;99146.83;;;14.18;82.01
60337;BME280;46978;50.288;28.624;2023-09-19T05:05:11;99150.05;;;14.25;82.03
60337;BME280;46978;50.288;28.624;2023-09-19T05:06:33;99143.70;;;14.32;81.65
60337;BME280;46978;50.288;28.624;2023-09-19T05:07:34;99136.55;;;14.37;81.33
60337;BME280;46978;50.288;28.624;2023-09-19T05:08:36;99139.73;;;14.45;80.99
60337;BME280;46978;50.288;28.624;2023-09-19T05:09:38;99138.64;;;14.51;80.86
60337;BME280;46978;50.288;28.624;2023-09-19T05:10:40;99134.95;;;14.57;80.65
60337;BME280;46978;50.288;28.624;2023-09-19T05:11:41;99130.52;;;14.59;80.35
60337;BME280;46978;50.288;28.624;2023-09-19T05:12:43;99128.53;;;14.65;79.97
60337;BME280;46978;50.288;28.624;2023-09-19T05:13:45;99132.80;;;14.68;79.73
60337;BME280;46978;50.288;28.624;2023-09-19T05:14:46;99134.45;;;14.70;79.80
60337;BME280;46978;50.288;28.624;2023-09-19T05:15:48;99129.89;;;14.76;79.79
60337;BME280;46978;50.288;28.624;2023-09-19T05:16:50;99127.94;;;14.81;79.69
60337;BME280;46978;50.288;28.624;2023-09-19T05:17:52;99128.69;;;14.84;79.30
60337;BME280;46978;50.288;28.624;2023-09-19T05:18:54;99125.03;;;14.88;79.34
60337;BME280;46978;50.288;28.624;2023-09-19T05:19:55;99127.52;;;14.92;79.44
60337;BME280;46978;50.288;28.624;2023-09-19T05:20:57;99127.34;;;14.96;79.24
60337;BME280;46978;50.288;28.624;2023-09-19T05:21:59;99129.83;;;14.99;79.00
60337;BME280;46978;50.288;28.624;2023-09-19T05:23:04;99124.41;;;15.04;78.82
60337;BME280;46978;50.288;28.624;2023-09-19T05:24:07;99120.77;;;15.08;78.74
60337;BME280;46978;50.288;28.624;2023-09-19T05:25:10;99120.65;;;15.11;78.49
60337;BME280;46978;50.288;28.624;2023-09-19T05:26:12;99118.81;;;15.13;78.49
60337;BME280;46978;50.288;28.624;2023-09-19T05:27:15;99116.95;;;15.17;78.53
60337;BME280;46978;50.288;28.624;2023-09-19T05:28:16;99120.27;;;15.20;78.41
60337;BME280;46978;50.288;28.624;2023-09-19T05:29:18;99121.86;;;15.24;78.23
60337;BME280;46978;50.288;28.624;2023-09-19T05:30:20;99121.73;;;15.28;78.21
60337;BME280;46978;50.288;28.624;2023-09-19T05:31:24;99116.37;;;15.31;78.04
60337;BME280;46978;50.288;28.624;2023-09-19T05:32:25;99113.64;;;15.34;77.84
60337;BME280;46978;50.288;28.624;2023-09-19T05:33:27;99118.67;;;15.38;77.90
60337;BME280;46978;50.288;28.624;2023-09-19T05:34:29;99121.16;;;15.41;77.55
60337;BME280;46978;50.288;28.624;2023-09-19T05:35:31;99120.09;;;15.46;77.54
60337;BME280;46978;50.288;28.624;2023-09-19T05:36:33;99116.38;;;15.51;77.45
60337;BME280;46978;50.288;28.624;2023-09-19T05:37:35;99137.95;;;15.56;77.34
60337;BME280;46978;50.288;28.624;2023-09-19T05:38:37;99118.67;;;15.59;76.89
60337;BME280;46978;50.288;28.624;2023-09-19T05:39:38;99114.16;;;15.63;76.99
60337;BME280;46978;50.288;28.624;2023-09-19T05:40:40;99112.28;;;15.66;76.74
60337;BME280;46978;50.288;28.624;2023-09-19T05:41:42;99118.22;;;15.70;76.62
60337;BME280;46978;50.288;28.624;2023-09-19T05:42:43;99118.86;;;15.75;76.58
60337;BME280;46978;50.288;28.624;2023-09-19T05:43:45;99112.61;;;15.79;76.56
60337;BME280;46978;50.288;28.624;2023-09-19T05:44:47;99117.64;;;15.84;76.24